Time;durP1;ratioP1;P1;durP2;ratioP2;P2;SDS_P1;SDS_P2;PMS_P1;PMS_P2;Temp;Humidity;BMP_temperature;BMP_pressure;BME280_temperature;BME280_humidity;BME280_pressure;Samples;Min_cycle;Max_cycle;Signal;HPM_P1;HPM_P2
2023/05/15 00:00:09;;;;;;;5.63;3.05;;;19.50;65.30;;;;;;4958150;28;20657;-53
2023/05/15 00:02:36;;;;;;;5.82;3.17;;;19.50;65.30;;;;;;4959052;28;20031;-55
2023/05/15 00:05:03;;;;;;;5.55;3.65;;;19.50;65.30;;;;;;4955945;28;20094;-52
2023/05/15 00:07:29;;;;;;;4.15;3.25;;;19.50;65.30;;;;;;4956639;28;20041;-54
2023/05/15 00:09:54;;;;;;;5.22;3.25;;;19.50;65.30;;;;;;4952613;28;20038;-54
2023/05/15 00:12:20;;;;;;;4.70;3.65;;;19.60;65.40;;;;;;4956784;28;20034;-58
2023/05/15 00:14:45;;;;;;;3.40;3.10;;;19.50;65.30;;;;;;4958138;28;20378;-55
2023/05/15 00:17:11;;;;;;;4.13;3.03;;;19.50;65.30;;;;;;4958249;28;20293;-56
2023/05/15 00:19:37;;;;;;;4.57;3.03;;;19.50;65.30;;;;;;4955658;28;20028;-56
2023/05/15 00:22:02;;;;;;;4.25;3.25;;;19.50;65.30;;;;;;4955993;28;20281;-52
2023/05/15 00:24:28;;;;;;;4.78;2.95;;;19.50;65.30;;;;;;4959841;28;20101;-55
2023/05/15 00:26:53;;;;;;;6.80;3.38;;;19.50;65.30;;;;;;4963423;28;20609;-55
2023/05/15 00:29:19;;;;;;;4.25;3.30;;;19.50;65.30;;;;;;4959050;28;20074;-57
2023/05/15 00:31:44;;;;;;;4.10;3.13;;;19.50;65.30;;;;;;4956824;28;20062;-52
2023/05/15 00:34:10;;;;;;;4.13;3.25;;;19.50;65.30;;;;;;4957000;28;20041;-53
2023/05/15 00:36:35;;;;;;;4.63;3.05;;;19.50;65.30;;;;;;4955173;28;20377;-54
2023/05/15 00:39:01;;;;;;;4.25;2.70;;;19.50;65.30;;;;;;4955854;28;20475;-49
2023/05/15 00:41:30;;;;;;;3.20;2.30;;;19.50;65.30;;;;;;4955956;28;20540;-50
2023/05/15 00:43:56;;;;;;;3.60;2.70;;;19.50;65.30;;;;;;4957177;28;20037;-54
2023/05/15 00:46:24;;;;;;;3.28;2.70;;;19.50;65.30;;;;;;4956435;28;20121;-56
2023/05/15 00:48:50;;;;;;;3.47;2.47;;;19.50;65.20;;;;;;4957816;28;20031;-57
2023/05/15 00:51:16;;;;;;;3.70;2.85;;;19.50;65.20;;;;;;4955471;28;20507;-58
2023/05/15 00:53:43;;;;;;;4.32;3.03;;;19.50;65.30;;;;;;4963288;28;20465;-54
2023/05/15 00:56:10;;;;;;;5.25;2.60;;;19.50;65.20;;;;;;4960818;28;20031;-53
2023/05/15 00:58:36;;;;;;;4.53;2.63;;;19.50;65.30;;;;;;4957072;28;20038;-51
2023/05/15 01:01:02;;;;;;;4.28;2.67;;;19.50;65.30;;;;;;4957248;28;20086;-55
2023/05/15 01:03:28;;;;;;;4.65;2.72;;;19.50;65.30;;;;;;4957013;28;20027;-54
2023/05/15 01:05:54;;;;;;;5.53;2.85;;;19.50;65.30;;;;;;4956291;28;20024;-51
2023/05/15 01:08:26;;;;;;;4.22;3.05;;;19.50;65.30;;;;;;4954427;28;20042;-54
2023/05/15 01:10:54;;;;;;;3.65;2.67;;;19.40;65.10;;;;;;4957129;28;20035;-52
2023/05/15 01:13:21;;;;;;;4.05;2.53;;;19.50;65.30;;;;;;4955061;28;20101;-51
2023/05/15 01:15:48;;;;;;;2.75;2.30;;;19.50;65.30;;;;;;4950250;28;20045;-53
2023/05/15 01:18:15;;;;;;;2.42;2.10;;;19.50;65.30;;;;;;4955879;28;20054;-55
2023/05/15 01:21:03;;;;;;;3.10;2.40;;;19.40;65.10;;;;;;4956111;28;20047;-57
2023/05/15 01:23:47;;;;;;;3.47;2.60;;;19.40;65.30;;;;;;4964551;28;20103;-55
2023/05/15 01:26:53;;;;;;;3.70;2.90;;;19.40;65.20;;;;;;4964333;28;20288;-51
2023/05/15 01:29:42;;;;;;;;;;;19.40;65.20;;;;;;4962153;28;20027;-53
2023/05/15 01:32:11;;;;;;;2.20;2.03;;;19.40;65.20;;;;;;4932152;28;20384;-55
2023/05/15 01:34:47;;;;;;;2.90;2.65;;;19.40;65.20;;;;;;4959052;28;20104;-56
2023/05/15 01:37:17;;;;;;;2.83;2.30;;;19.40;65.20;;;;;;4972977;28;20036;-55
2023/05/15 01:39:45;;;;;;;2.13;1.88;;;19.40;65.20;;;;;;4960592;28;20384;-56
2023/05/15 01:42:15;;;;;;;3.80;2.25;;;19.40;65.20;;;;;;4955419;28;20115;-53
2023/05/15 01:44:47;;;;;;;3.35;2.22;;;19.40;65.20;;;;;;4961615;28;20035;-55
2023/05/15 01:47:16;;;;;;;3.38;2.20;;;19.40;65.10;;;;;;4959490;28;20035;-53
2023/05/15 01:49:44;;;;;;;3.53;2.45;;;19.40;65.20;;;;;;4959898;28;20043;-54
2023/05/15 01:52:19;;;;;;;3.00;2.30;;;19.40;65.20;;;;;;4964858;28;21553;-53
2023/05/15 01:54:46;;;;;;;2.25;1.63;;;19.40;65.20;;;;;;4962789;28;20489;-55
2023/05/15 01:57:14;;;;;;;3.05;2.33;;;19.40;65.20;;;;;;4962808;28;20047;-58
2023/05/15 01:59:41;;;;;;;2.88;2.08;;;19.40;65.20;;;;;;4954993;28;20039;-53
2023/05/15 02:02:07;;;;;;;2.72;1.98;;;19.40;65.20;;;;;;4959251;28;20030;-53
2023/05/15 02:04:33;;;;;;;2.30;2.03;;;19.40;65.20;;;;;;4958034;28;20718;-55
2023/05/15 02:07:01;;;;;;;2.90;2.25;;;19.40;65.20;;;;;;4955877;28;20043;-54
2023/05/15 02:09:27;;;;;;;2.33;1.80;;;19.40;65.20;;;;;;4955788;28;20085;-53
2023/05/15 02:11:54;;;;;;;2.10;1.85;;;19.40;65.20;;;;;;4956234;28;20322;-53
2023/05/15 02:14:20;;;;;;;2.78;2.20;;;19.40;65.20;;;;;;4959128;28;20402;-55
2023/05/15 02:16:46;;;;;;;2.30;2.10;;;19.40;65.20;;;;;;4958735;28;20170;-57
2023/05/15 02:19:11;;;;;;;4.28;2.30;;;19.40;65.20;;;;;;4957895;28;20041;-52
2023/05/15 02:21:37;;;;;;;2.40;2.08;;;19.40;65.10;;;;;;4961324;28;20049;-52
2023/05/15 02:24:03;;;;;;;1.90;1.67;;;19.40;65.10;;;;;;4962380;28;20026;-56
2023/05/15 02:27:01;;;;;;;3.47;1.77;;;19.40;65.20;;;;;;4961240;28;20530;-56
2023/05/15 02:29:33;;;;;;;2.35;2.00;;;19.40;65.10;;;;;;4958087;28;20034;-54
2023/05/15 02:32:28;;;;;;;2.17;1.98;;;19.40;65.10;;;;;;4956701;28;20038;-58
2023/05/15 02:35:00;;;;;;;2.50;2.25;;;19.40;65.20;;;;;;4956393;28;20496;-53
2023/05/15 02:37:29;;;;;;;3.50;2.40;;;19.30;65.10;;;;;;4958235;28;20027;-55
2023/05/15 02:39:58;;;;;;;2.15;1.95;;;19.30;65.10;;;;;;4954741;28;20122;-55
2023/05/15 02:42:28;;;;;;;2.75;1.80;;;19.30;65.10;;;;;;4959886;28;20042;-54
2023/05/15 02:44:54;;;;;;;1.67;1.58;;;19.30;65.10;;;;;;4956293;28;20037;-54
2023/05/15 02:47:21;;;;;;;2.00;1.65;;;19.30;65.10;;;;;;4958852;28;20290;-53
2023/05/15 02:49:47;;;;;;;2.30;1.85;;;19.30;65.10;;;;;;4959310;28;20707;-55
2023/05/15 02:52:13;;;;;;;1.90;1.63;;;19.30;65.10;;;;;;4961052;28;20505;-54
2023/05/15 02:54:40;;;;;;;2.38;1.67;;;19.30;65.10;;;;;;4961940;28;20039;-53
2023/05/15 02:57:06;;;;;;;1.83;1.52;;;19.30;65.10;;;;;;4959476;28;20179;-56
2023/05/15 02:59:32;;;;;;;1.50;1.40;;;19.30;65.10;;;;;;4958752;28;20058;-54
2023/05/15 03:01:58;;;;;;;1.58;1.40;;;19.30;65.10;;;;;;4956742;28;20316;-57
2023/05/15 03:04:24;;;;;;;2.55;1.70;;;19.30;65.10;;;;;;4956521;28;20031;-55
2023/05/15 03:06:49;;;;;;;2.67;1.83;;;19.30;65.10;;;;;;4956651;28;20364;-52
2023/05/15 03:09:15;;;;;;;1.92;1.42;;;19.30;65.10;;;;;;4954370;28;20043;-53
2023/05/15 03:11:41;;;;;;;1.98;1.77;;;19.30;65.10;;;;;;4957343;28;20134;-51
2023/05/15 03:14:06;;;;;;;1.60;1.50;;;19.30;65.20;;;;;;4959921;28;20491;-56
2023/05/15 03:16:32;;;;;;;2.15;1.50;;;19.30;65.10;;;;;;4956429;28;20031;-58
2023/05/15 03:18:57;;;;;;;1.98;1.77;;;19.30;65.10;;;;;;4959741;28;20034;-50
2023/05/15 03:21:23;;;;;;;1.90;1.80;;;19.30;65.10;;;;;;4957951;28;21110;-55
2023/05/15 03:23:49;;;;;;;2.83;1.60;;;19.30;65.10;;;;;;4961825;28;20030;-53
2023/05/15 03:26:14;;;;;;;2.10;1.83;;;19.30;65.10;;;;;;4958477;28;20374;-55
2023/05/15 03:28:40;;;;;;;1.63;1.45;;;19.30;65.10;;;;;;4958649;28;20130;-52
2023/05/15 03:31:07;;;;;;;1.50;1.38;;;19.30;65.10;;;;;;4954728;28;20042;-55
2023/05/15 03:33:32;;;;;;;2.55;1.80;;;19.30;65.20;;;;;;4956538;28;20062;-51
2023/05/15 03:35:58;;;;;;;2.35;1.52;;;19.30;65.10;;;;;;4955311;28;20054;-58
2023/05/15 03:38:23;;;;;;;1.92;1.60;;;19.30;65.10;;;;;;4956969;28;20897;-53
2023/05/15 03:40:49;;;;;;;1.52;1.33;;;19.20;65.10;;;;;;4957988;28;20070;-56
2023/05/15 03:43:14;;;;;;;1.58;1.48;;;19.30;65.10;;;;;;4957413;28;20166;-54
2023/05/15 03:45:40;;;;;;;1.88;1.45;;;19.20;65.00;;;;;;4956491;28;20361;-51
2023/05/15 03:48:06;;;;;;;1.88;1.58;;;19.30;65.10;;;;;;4955895;28;20480;-53
2023/05/15 03:50:31;;;;;;;2.67;1.83;;;19.30;65.20;;;;;;4957660;28;20073;-56
2023/05/15 03:52:57;;;;;;;1.48;1.38;;;19.20;65.10;;;;;;4959272;28;20038;-57
2023/05/15 03:55:22;;;;;;;2.70;1.50;;;19.30;65.10;;;;;;4959670;28;20035;-54
2023/05/15 03:57:48;;;;;;;1.60;1.45;;;19.20;65.00;;;;;;4960315;28;20043;-52
2023/05/15 04:00:14;;;;;;;1.20;1.10;;;19.20;65.10;;;;;;4957745;28;20035;-57
2023/05/15 04:02:40;;;;;;;1.90;1.42;;;19.20;65.10;;;;;;4957576;28;20523;-59
2023/05/15 04:05:06;;;;;;;1.60;1.50;;;19.20;65.00;;;;;;4954656;28;20034;-52
2023/05/15 04:07:33;;;;;;;1.67;1.45;;;19.30;65.10;;;;;;4956385;28;20039;-53
2023/05/15 04:10:01;;;;;;;1.85;1.50;;;19.20;65.10;;;;;;4956049;28;20034;-55
2023/05/15 04:12:32;;;;;;;2.25;1.52;;;19.20;65.10;;;;;;4958005;28;20078;-50
2023/05/15 04:15:18;;;;;;;1.80;1.63;;;19.30;65.10;;;;;;4954689;28;20023;-55
2023/05/15 04:17:45;;;;;;;1.73;1.48;;;19.20;65.00;;;;;;4961260;28;20066;-54
2023/05/15 04:20:16;;;;;;;1.73;1.63;;;19.20;65.10;;;;;;4960646;28;20043;-49
2023/05/15 04:22:43;;;;;;;1.83;1.73;;;19.20;65.00;;;;;;4959158;28;20039;-56
2023/05/15 04:25:09;;;;;;;1.50;1.40;;;19.20;65.00;;;;;;4956091;28;20153;-57
2023/05/15 04:27:35;;;;;;;1.60;1.50;;;19.20;65.00;;;;;;4955945;28;20113;-53
2023/05/15 04:30:02;;;;;;;2.10;1.70;;;19.20;65.00;;;;;;4954777;28;20493;-53
2023/05/15 04:32:27;;;;;;;1.73;1.30;;;19.20;65.00;;;;;;4955459;28;20040;-57
2023/05/15 04:34:53;;;;;;;1.23;1.13;;;19.20;65.00;;;;;;4958536;28;20408;-55
2023/05/15 04:37:18;;;;;;;2.53;1.48;;;19.20;65.00;;;;;;4954535;28;20097;-52
2023/05/15 04:39:44;;;;;;;1.35;1.10;;;19.20;65.00;;;;;;4955737;28;20038;-53
2023/05/15 04:42:10;;;;;;;1.95;1.75;;;19.20;65.00;;;;;;4956768;28;20045;-50
2023/05/15 04:44:35;;;;;;;1.58;1.48;;;19.20;65.00;;;;;;4955801;28;20027;-52
2023/05/15 04:47:01;;;;;;;1.70;1.30;;;19.20;65.00;;;;;;4956643;28;20049;-56
2023/05/15 04:49:26;;;;;;;2.30;1.50;;;19.20;65.00;;;;;;4960620;28;20074;-53
2023/05/15 04:51:52;;;;;;;1.60;1.50;;;19.20;65.10;;;;;;4962143;28;20128;-51
2023/05/15 04:54:17;;;;;;;1.75;1.55;;;19.20;65.00;;;;;;4958319;28;20130;-54
2023/05/15 04:56:44;;;;;;;1.30;1.20;;;19.20;65.00;;;;;;4956810;28;20563;-56
2023/05/15 04:59:10;;;;;;;1.58;1.48;;;19.20;65.00;;;;;;4952801;28;20034;-54
2023/05/15 05:01:36;;;;;;;3.03;1.45;;;19.20;65.00;;;;;;4956806;28;20030;-55
2023/05/15 05:04:01;;;;;;;2.50;1.50;;;19.20;65.00;;;;;;4954137;28;20535;-53
2023/05/15 05:06:27;;;;;;;3.05;2.47;;;19.20;65.00;;;;;;4955411;28;20038;-56
2023/05/15 05:08:52;;;;;;;1.60;1.50;;;19.20;65.00;;;;;;4954909;28;20027;-59
2023/05/15 05:11:18;;;;;;;1.30;1.20;;;19.20;65.00;;;;;;4955221;28;20096;-53
2023/05/15 05:13:43;;;;;;;1.92;1.50;;;19.20;65.00;;;;;;4957943;28;20516;-56
2023/05/15 05:16:09;;;;;;;1.73;1.42;;;19.20;65.00;;;;;;4960434;28;20026;-53
2023/05/15 05:18:35;;;;;;;1.98;1.77;;;19.20;65.00;;;;;;4958457;28;20548;-54
2023/05/15 05:21:01;;;;;;;1.40;1.30;;;19.20;65.10;;;;;;4955185;28;20043;-55
2023/05/15 05:23:27;;;;;;;1.67;1.48;;;19.20;65.00;;;;;;4958731;28;20090;-55
2023/05/15 05:25:53;;;;;;;2.80;1.70;;;19.20;65.00;;;;;;4951114;28;20125;-55
2023/05/15 05:28:18;;;;;;;3.78;1.70;;;19.20;65.00;;;;;;4956905;28;20122;-52
2023/05/15 05:30:45;;;;;;;1.80;1.55;;;19.20;65.00;;;;;;4952791;28;20532;-54
2023/05/15 05:33:11;;;;;;;1.73;1.50;;;19.20;65.00;;;;;;4953960;28;20073;-53
2023/05/15 05:35:36;;;;;;;1.55;1.45;;;19.30;64.80;;;;;;4954526;28;20153;-51
2023/05/15 05:38:02;;;;;;;1.88;1.40;;;19.30;64.80;;;;;;4954383;28;20062;-55
2023/05/15 05:40:27;;;;;;;1.70;1.58;;;19.30;65.00;;;;;;4954562;28;20035;-54
2023/05/15 05:42:53;;;;;;;3.30;1.20;;;19.30;65.00;;;;;;4956372;28;20035;-59
2023/05/15 05:45:19;;;;;;;2.40;1.60;;;19.40;64.80;;;;;;4955582;28;20118;-55
2023/05/15 05:47:44;;;;;;;2.35;1.48;;;19.40;65.00;;;;;;4961326;28;20420;-56
2023/05/15 05:50:10;;;;;;;3.08;1.50;;;19.40;65.10;;;;;;4959486;28;20121;-53
2023/05/15 05:52:36;;;;;;;2.25;1.40;;;19.40;65.00;;;;;;4958026;28;20037;-54
2023/05/15 05:55:02;;;;;;;2.55;1.50;;;19.40;64.90;;;;;;4955530;28;20049;-54
2023/05/15 05:57:27;;;;;;;1.65;1.42;;;19.40;65.00;;;;;;4956626;28;20042;-55
2023/05/15 05:59:53;;;;;;;1.30;1.17;;;19.40;64.80;;;;;;4954740;28;20486;-58
2023/05/15 06:02:18;;;;;;;2.45;1.52;;;19.40;65.10;;;;;;4954378;28;20023;-52
2023/05/15 06:04:45;;;;;;;2.55;1.42;;;19.40;64.80;;;;;;4956060;28;20042;-52
2023/05/15 06:07:11;;;;;;;2.92;1.40;;;19.50;65.00;;;;;;4952307;28;20061;-51
2023/05/15 06:09:36;;;;;;;1.33;1.17;;;19.50;64.90;;;;;;4959096;28;20055;-51
2023/05/15 06:12:03;;;;;;;1.40;1.30;;;19.50;64.70;;;;;;4957035;28;20468;-57
2023/05/15 06:14:29;;;;;;;2.08;1.10;;;19.50;64.90;;;;;;4959068;28;20493;-53
2023/05/15 06:16:55;;;;;;;2.00;1.60;;;19.50;65.10;;;;;;4964018;28;20338;-50
2023/05/15 06:19:20;;;;;;;1.40;1.23;;;19.50;64.90;;;;;;4961196;28;20141;-55
2023/05/15 06:21:46;;;;;;;1.83;1.40;;;19.50;64.90;;;;;;4960308;28;20039;-55
2023/05/15 06:24:11;;;;;;;1.67;1.58;;;19.40;64.90;;;;;;4958089;28;20066;-56
2023/05/15 06:26:37;;;;;;;1.45;1.35;;;19.50;65.00;;;;;;4959514;28;20058;-52
2023/05/15 06:29:03;;;;;;;1.40;1.30;;;19.40;64.80;;;;;;4956862;28;20035;-53
2023/05/15 06:31:28;;;;;;;2.90;1.58;;;19.50;65.00;;;;;;4957373;28;20159;-52
2023/05/15 06:33:53;;;;;;;2.50;1.30;;;19.40;65.10;;;;;;4958479;28;20037;-55
2023/05/15 06:36:19;;;;;;;1.58;1.30;;;19.40;64.90;;;;;;4955183;28;20073;-54
2023/05/15 06:38:45;;;;;;;1.60;1.50;;;19.40;64.90;;;;;;4961385;28;20058;-54
2023/05/15 06:41:10;;;;;;;2.15;1.20;;;19.40;65.10;;;;;;4958700;28;20038;-52
2023/05/15 06:43:36;;;;;;;2.00;1.65;;;19.40;65.30;;;;;;4956022;28;20031;-53
2023/05/15 06:46:01;;;;;;;1.42;1.33;;;19.40;65.20;;;;;;4962280;28;20126;-52
2023/05/15 06:48:27;;;;;;;1.52;1.40;;;19.40;65.40;;;;;;4960772;28;20031;-57
2023/05/15 06:50:52;;;;;;;1.48;1.38;;;19.40;65.30;;;;;;4959367;28;20308;-53
2023/05/15 06:53:19;;;;;;;2.40;1.60;;;19.40;65.40;;;;;;4960077;28;20464;-50
2023/05/15 06:55:45;;;;;;;2.10;1.83;;;19.40;65.40;;;;;;4958020;28;20579;-51
2023/05/15 06:58:11;;;;;;;1.55;1.30;;;19.40;65.30;;;;;;4958007;28;20039;-51
2023/05/15 07:00:36;;;;;;;3.17;2.08;;;19.40;65.20;;;;;;4954448;28;20027;-56
2023/05/15 07:03:02;;;;;;;2.55;1.40;;;19.40;65.50;;;;;;4950752;28;20042;-53
2023/05/15 07:05:27;;;;;;;3.95;1.50;;;19.40;65.30;;;;;;4952606;28;20031;-57
2023/05/15 07:07:53;;;;;;;2.17;1.60;;;19.40;65.20;;;;;;4960616;28;20034;-54
2023/05/15 07:10:18;;;;;;;2.40;1.55;;;19.40;65.50;;;;;;4953751;28;20035;-55
2023/05/15 07:12:44;;;;;;;2.88;1.52;;;19.40;65.30;;;;;;4956412;28;20035;-58
2023/05/15 07:15:09;;;;;;;1.88;1.45;;;19.40;65.60;;;;;;4960931;28;20065;-52
2023/05/15 07:17:35;;;;;;;6.45;1.70;;;19.40;65.40;;;;;;4963539;28;20073;-56
2023/05/15 07:20:04;;;;;;;2.00;1.52;;;19.40;65.40;;;;;;4977252;23;20143;-58
2023/05/15 07:22:30;;;;;;;2.60;1.48;;;19.40;65.80;;;;;;4985135;28;20874;-54
2023/05/15 07:24:56;;;;;;;2.78;1.70;;;19.40;65.40;;;;;;4983723;28;20117;-51
2023/05/15 07:27:21;;;;;;;3.05;1.83;;;19.40;65.40;;;;;;4983141;28;20503;-53
2023/05/15 07:29:47;;;;;;;2.45;1.50;;;19.40;65.20;;;;;;4986373;28;20519;-53
2023/05/15 07:32:12;;;;;;;2.67;1.75;;;19.40;65.10;;;;;;4985847;28;20724;-56
2023/05/15 07:34:38;;;;;;;2.25;1.63;;;19.40;65.30;;;;;;4987749;28;20092;-55
2023/05/15 07:37:03;;;;;;;3.75;1.90;;;19.40;65.10;;;;;;4990440;28;20038;-54
2023/05/15 07:39:29;;;;;;;3.00;1.60;;;19.40;65.10;;;;;;4990662;28;20383;-56
2023/05/15 07:41:55;;;;;;;4.32;1.60;;;19.40;65.10;;;;;;4993666;28;20455;-57
2023/05/15 07:44:20;;;;;;;2.03;1.55;;;19.40;65.10;;;;;;4986301;28;20038;-53
2023/05/15 07:46:46;;;;;;;2.03;1.40;;;19.40;65.10;;;;;;4988510;28;20469;-55
2023/05/15 07:49:11;;;;;;;3.90;1.70;;;19.40;65.30;;;;;;4986228;28;20128;-52
2023/05/15 07:51:37;;;;;;;3.05;2.13;;;19.40;65.10;;;;;;4985034;28;20033;-53
2023/05/15 07:54:03;;;;;;;2.95;1.45;;;19.40;65.20;;;;;;4983902;28;20033;-55
2023/05/15 07:56:29;;;;;;;3.47;1.70;;;19.40;65.10;;;;;;4984327;28;20065;-52
2023/05/15 07:58:54;;;;;;;3.42;1.80;;;19.40;65.50;;;;;;4985024;28;20030;-56
2023/05/15 08:01:19;;;;;;;1.60;1.33;;;19.40;65.80;;;;;;4986025;28;20929;-53
2023/05/15 08:03:45;;;;;;;2.92;2.08;;;19.40;65.30;;;;;;4992108;28;20033;-54
2023/05/15 08:06:10;;;;;;;1.98;1.75;;;19.40;65.30;;;;;;4987597;28;20438;-52
2023/05/15 08:08:36;;;;;;;3.70;1.88;;;19.40;65.20;;;;;;4991130;28;20035;-51
2023/05/15 08:11:01;;;;;;;2.53;1.67;;;19.40;65.20;;;;;;4991962;28;20029;-52
2023/05/15 08:13:27;;;;;;;2.13;1.60;;;19.40;65.30;;;;;;4989371;28;20042;-53
2023/05/15 08:15:53;;;;;;;3.20;1.98;;;19.40;65.20;;;;;;4985647;28;20354;-54
2023/05/15 08:18:18;;;;;;;2.55;1.63;;;19.40;65.20;;;;;;4985995;28;20492;-55
2023/05/15 08:20:44;;;;;;;2.75;2.00;;;19.40;65.30;;;;;;4984821;28;20475;-54
2023/05/15 08:23:10;;;;;;;2.35;1.75;;;19.40;65.40;;;;;;4984856;28;20038;-54
2023/05/15 08:25:35;;;;;;;4.50;1.73;;;19.40;65.10;;;;;;4985032;28;20108;-54
2023/05/15 08:28:01;;;;;;;2.30;1.30;;;19.40;65.50;;;;;;4986483;28;20034;-58
2023/05/15 08:30:27;;;;;;;3.08;2.03;;;19.40;65.30;;;;;;4984302;28;20492;-58
2023/05/15 08:32:53;;;;;;;1.60;1.50;;;19.40;65.30;;;;;;4987692;28;20033;-52
2023/05/15 08:35:18;;;;;;;4.68;1.60;;;19.40;65.30;;;;;;4987047;28;20128;-54
2023/05/15 08:37:44;;;;;;;2.85;1.70;;;19.40;65.10;;;;;;4991581;28;20042;-52
2023/05/15 08:40:10;;;;;;;1.70;1.60;;;19.40;65.10;;;;;;4991487;28;20034;-56
2023/05/15 08:42:47;;;;;;;1.98;1.52;;;19.40;65.20;;;;;;4988728;28;20706;-57
2023/05/15 08:45:13;;;;;;;2.35;1.88;;;19.40;65.10;;;;;;5007733;23;20052;-71
2023/05/15 08:47:40;;;;;;;2.38;1.65;;;19.40;65.20;;;;;;5006687;28;20037;-68
2023/05/15 08:50:07;;;;;;;3.30;1.80;;;19.40;65.10;;;;;;5008205;28;20360;-70
2023/05/15 08:52:33;;;;;;;2.05;1.85;;;19.40;65.10;;;;;;5012510;28;20613;-69
2023/05/15 08:54:59;;;;;;;2.05;1.73;;;19.40;65.10;;;;;;5004641;28;20025;-68
2023/05/15 08:57:26;;;;;;;3.95;1.98;;;19.40;65.10;;;;;;5005660;28;20034;-68
2023/05/15 08:59:53;;;;;;;2.25;1.45;;;19.40;65.00;;;;;;5007911;28;20037;-69
2023/05/15 09:02:20;;;;;;;2.67;2.08;;;19.40;65.10;;;;;;5020671;23;20092;-53
2023/05/15 09:04:46;;;;;;;1.63;1.52;;;19.40;65.10;;;;;;5004501;28;20041;-55
2023/05/15 09:07:12;;;;;;;2.20;2.00;;;19.40;65.10;;;;;;5004844;28;20568;-55
2023/05/15 09:09:38;;;;;;;1.70;1.60;;;19.40;65.10;;;;;;5007504;28;20037;-53
2023/05/15 09:12:05;;;;;;;4.10;1.80;;;19.40;65.20;;;;;;5005235;28;20025;-54
2023/05/15 09:14:31;;;;;;;2.05;1.55;;;19.40;65.10;;;;;;5001863;28;20030;-54
2023/05/15 09:16:57;;;;;;;3.72;1.90;;;19.40;65.10;;;;;;5006621;28;20497;-51
2023/05/15 09:19:22;;;;;;;1.50;1.40;;;19.40;65.20;;;;;;5004161;28;20030;-52
2023/05/15 09:21:48;;;;;;;3.75;3.13;;;19.40;65.10;;;;;;5007134;28;20025;-51
2023/05/15 09:24:22;;;;;;;3.00;1.55;;;19.40;65.10;;;;;;5001910;28;20441;-49
2023/05/15 09:27:01;;;;;;;2.58;1.80;;;19.40;65.10;;;;;;4999036;28;20494;-50
2023/05/15 09:29:28;;;;;;;1.83;1.60;;;19.40;65.20;;;;;;4999039;28;20038;-51
2023/05/15 09:31:54;;;;;;;2.00;1.60;;;19.40;65.20;;;;;;5005778;28;20129;-49
2023/05/15 09:34:29;;;;;;;3.65;1.80;;;19.40;65.30;;;;;;5005417;28;20286;-51
2023/05/15 09:36:55;;;;;;;1.65;1.50;;;19.40;65.40;;;;;;5007325;28;20547;-50
2023/05/15 09:39:24;;;;;;;2.65;1.67;;;19.40;65.50;;;;;;5000220;28;20915;-49
2023/05/15 09:41:49;;;;;;;3.38;2.20;;;19.30;65.30;;;;;;5006484;28;20038;-52
2023/05/15 09:44:23;;;;;;;4.97;1.80;;;19.40;65.50;;;;;;5008264;28;20119;-53
2023/05/15 09:46:49;;;;;;;1.88;1.65;;;19.40;65.60;;;;;;5008544;28;20033;-47
2023/05/15 09:49:14;;;;;;;2.10;1.80;;;19.40;65.50;;;;;;5007562;28;20025;-51
2023/05/15 09:51:43;;;;;;;2.58;1.70;;;19.30;65.40;;;;;;5006230;28;20047;-47
2023/05/15 09:54:14;;;;;;;1.90;1.63;;;19.30;66.20;;;;;;5004951;28;20038;-47
2023/05/15 09:56:45;;;;;;;2.22;2.00;;;19.40;65.50;;;;;;5004123;28;20030;-50
2023/05/15 09:59:16;;;;;;;2.38;1.70;;;19.30;65.40;;;;;;5001905;28;20121;-50
2023/05/15 10:01:45;;;;;;;1.92;1.63;;;19.30;65.50;;;;;;5022558;28;20068;-53
2023/05/15 10:04:12;;;;;;;4.45;1.95;;;19.30;65.50;;;;;;5006497;28;20120;-47
2023/05/15 10:06:40;;;;;;;2.13;1.85;;;19.30;65.50;;;;;;5010315;28;20336;-53
2023/05/15 10:09:06;;;;;;;1.75;1.65;;;19.30;65.50;;;;;;5010406;28;20254;-53
2023/05/15 10:11:36;;;;;;;1.77;1.52;;;19.30;65.50;;;;;;5007916;28;20038;-53
2023/05/15 10:14:07;;;;;;;3.63;2.05;;;19.30;65.50;;;;;;5005543;28;20037;-57
2023/05/15 10:16:34;;;;;;;3.20;1.80;;;19.30;65.60;;;;;;5000219;28;20035;-52
2023/05/15 10:19:03;;;;;;;3.60;2.25;;;19.30;65.60;;;;;;5012119;28;20028;-52
2023/05/15 10:21:34;;;;;;;3.33;1.85;;;19.30;65.60;;;;;;5004230;28;20170;-51
2023/05/15 10:24:00;;;;;;;2.78;1.60;;;19.30;65.50;;;;;;5005915;28;20117;-47
2023/05/15 10:26:37;;;;;;;2.15;1.70;;;19.30;65.50;;;;;;5002907;28;20037;-55
2023/05/15 10:29:09;;;;;;;3.38;1.92;;;19.30;65.60;;;;;;5005348;28;20483;-54
2023/05/15 10:31:35;;;;;;;3.42;2.47;;;19.30;65.50;;;;;;5006006;28;20053;-54
2023/05/15 10:34:01;;;;;;;2.95;1.67;;;19.30;65.60;;;;;;5011296;28;20033;-54
2023/05/15 10:36:27;;;;;;;3.10;1.90;;;19.30;65.50;;;;;;5002275;28;20113;-52
2023/05/15 10:38:53;;;;;;;2.47;1.83;;;19.30;65.50;;;;;;5002324;28;20022;-51
2023/05/15 10:41:20;;;;;;;3.72;2.70;;;19.30;65.60;;;;;;5001573;28;20096;-54
2023/05/15 10:43:47;;;;;;;2.25;1.75;;;19.30;65.60;;;;;;5001988;28;20361;-53
2023/05/15 10:46:15;;;;;;;3.72;1.90;;;19.30;65.60;;;;;;5004383;28;20080;-54
2023/05/15 10:48:40;;;;;;;2.97;1.90;;;19.30;65.60;;;;;;5005163;28;20038;-49
2023/05/15 10:51:32;;;;;;;2.88;1.80;;;19.30;65.60;;;;;;5006156;28;20042;-53
2023/05/15 10:54:02;;;;;;;3.28;1.90;;;19.30;65.60;;;;;;5005616;28;20040;-50
2023/05/15 10:56:32;;;;;;;2.17;1.98;;;19.30;65.70;;;;;;5000298;28;20026;-50
2023/05/15 10:59:03;;;;;;;4.63;1.60;;;19.30;65.70;;;;;;5008595;28;20410;-52
2023/05/15 11:01:33;;;;;;;3.35;2.10;;;19.30;65.70;;;;;;5003755;28;20289;-48
2023/05/15 11:04:13;;;;;;;2.20;2.00;;;19.30;65.60;;;;;;5002986;28;20128;-52
2023/05/15 11:06:41;;;;;;;1.73;1.63;;;19.30;65.60;;;;;;5006503;28;20064;-46
2023/05/15 11:09:23;;;;;;;1.95;1.70;;;19.30;65.60;;;;;;5008025;28;20201;-48
2023/05/15 11:11:51;;;;;;;2.97;2.13;;;19.30;65.60;;;;;;5005704;28;20561;-50
2023/05/15 11:14:20;;;;;;;2.15;1.95;;;19.30;65.50;;;;;;4998322;28;20120;-49
2023/05/15 11:16:51;;;;;;;3.95;2.70;;;19.30;65.50;;;;;;5011077;28;20542;-50
2023/05/15 11:19:54;;;;;;;2.25;1.95;;;19.40;65.50;;;;;;5006037;28;20126;-50
2023/05/15 11:22:38;;;;;;;2.35;2.15;;;19.30;65.50;;;;;;4996415;28;20036;-54
2023/05/15 11:25:09;;;;;;;2.78;1.85;;;19.40;65.60;;;;;;5005073;28;20384;-52
2023/05/15 11:27:42;;;;;;;1.95;1.75;;;19.30;65.40;;;;;;5001631;28;20522;-50
2023/05/15 11:30:22;;;;;;;2.72;1.90;;;19.30;65.50;;;;;;5006170;28;20513;-47
2023/05/15 11:32:51;;;;;;;2.63;2.40;;;19.30;65.60;;;;;;5006277;28;20064;-47
2023/05/15 11:35:25;;;;;;;2.67;2.00;;;19.40;65.70;;;;;;5006285;28;20399;-48
2023/05/15 11:37:54;;;;;;;2.47;1.90;;;19.30;65.60;;;;;;5001083;28;20034;-49
2023/05/15 11:40:25;;;;;;;2.85;1.80;;;19.30;65.60;;;;;;5003633;28;20033;-47
2023/05/15 11:43:01;;;;;;;2.85;1.80;;;19.30;65.60;;;;;;4999801;28;20085;-53
2023/05/15 11:45:30;;;;;;;2.65;1.85;;;19.30;65.70;;;;;;5002630;28;20031;-50
2023/05/15 11:47:56;;;;;;;2.22;2.08;;;19.30;65.50;;;;;;5008226;28;20049;-48
2023/05/15 11:50:22;;;;;;;3.03;2.38;;;19.30;65.70;;;;;;4997267;28;20032;-47
2023/05/15 11:52:51;;;;;;;2.40;2.08;;;19.40;65.70;;;;;;5003753;28;20037;-50
2023/05/15 11:55:18;;;;;;;2.00;1.80;;;19.30;65.60;;;;;;5006896;28;20414;-51
2023/05/15 11:57:47;;;;;;;1.92;1.67;;;19.30;65.70;;;;;;5005199;28;20084;-46
2023/05/15 12:00:13;;;;;;;2.88;2.00;;;19.40;65.80;;;;;;4999375;28;20133;-49
2023/05/15 12:02:39;;;;;;;2.88;2.38;;;19.30;65.70;;;;;;5007569;28;20050;-53
2023/05/15 12:05:08;;;;;;;3.67;2.08;;;19.30;65.70;;;;;;5004641;28;20411;-53
2023/05/15 12:07:41;;;;;;;1.80;1.60;;;19.30;65.80;;;;;;5007000;28;20437;-50
2023/05/15 12:10:10;;;;;;;2.55;2.03;;;19.40;65.80;;;;;;5008118;28;20080;-54
2023/05/15 12:12:38;;;;;;;2.72;1.77;;;19.30;65.80;;;;;;5003957;28;20026;-52
2023/05/15 12:15:04;;;;;;;2.47;2.28;;;19.30;65.80;;;;;;5005634;28;20026;-54
2023/05/15 12:17:31;;;;;;;3.38;2.25;;;19.40;65.80;;;;;;5008705;28;20396;-49
2023/05/15 12:19:58;;;;;;;2.10;2.00;;;19.30;65.70;;;;;;5001879;28;20045;-48
2023/05/15 12:22:24;;;;;;;3.55;2.20;;;19.30;65.70;;;;;;5004120;28;20439;-49
2023/05/15 12:24:49;;;;;;;2.63;2.42;;;19.30;65.60;;;;;;5001666;28;20037;-52
2023/05/15 12:27:15;;;;;;;2.05;1.90;;;19.30;65.70;;;;;;5005369;28;20117;-53
2023/05/15 12:29:41;;;;;;;3.55;2.30;;;19.40;65.70;;;;;;5004431;28;20120;-49
2023/05/15 12:32:08;;;;;;;2.17;1.98;;;19.40;65.70;;;;;;5003204;28;20039;-57
2023/05/15 12:34:34;;;;;;;2.40;2.20;;;19.40;65.60;;;;;;5012806;28;20076;-55
2023/05/15 12:37:00;;;;;;;1.80;1.70;;;19.30;65.60;;;;;;5007766;28;20033;-49
2023/05/15 12:39:26;;;;;;;2.00;1.88;;;19.40;65.60;;;;;;5003131;28;20382;-46
2023/05/15 12:41:54;;;;;;;2.65;2.33;;;19.30;65.70;;;;;;5007736;28;20037;-52
2023/05/15 12:44:20;;;;;;;3.45;2.28;;;19.40;65.50;;;;;;5004544;28;20518;-54
2023/05/15 12:46:46;;;;;;;2.85;2.20;;;19.30;65.50;;;;;;5004472;28;20112;-60
2023/05/15 12:49:12;;;;;;;4.75;3.20;;;19.40;65.80;;;;;;4997849;28;20766;-50